createdAt,value
2018-08-07T00:00:35.068Z,19.79
2018-08-07T00:01:43.943Z,19.79
2018-08-07T00:02:52.555Z,19.75
2018-08-07T00:04:01.174Z,19.74
2018-08-07T00:05:09.786Z,19.64
2018-08-07T00:06:18.403Z,19.64
2018-08-07T00:07:27.008Z,19.7
2018-08-07T00:08:35.622Z,19.64
2018-08-07T00:09:44.237Z,19.59
2018-08-07T00:10:52.853Z,19.56
2018-08-07T00:12:01.464Z,19.6
2018-08-07T00:13:10.076Z,19.6
2018-08-07T00:14:18.694Z,19.57
2018-08-07T00:15:27.311Z,19.57
2018-08-07T00:16:35.923Z,19.49
2018-08-07T00:17:44.541Z,19.47
2018-08-07T00:18:53.153Z,19.49
2018-08-07T00:20:01.787Z,19.44
2018-08-07T00:21:10.643Z,19.47
2018-08-07T00:22:19.259Z,19.49
2018-08-07T00:23:27.872Z,19.52
2018-08-07T00:24:36.486Z,19.56
2018-08-07T00:25:45.100Z,19.42
2018-08-07T00:26:53.712Z,19.47
2018-08-07T00:28:02.325Z,19.48
2018-08-07T00:29:10.937Z,19.49
2018-08-07T00:30:19.555Z,19.48
2018-08-07T00:31:28.168Z,19.47
2018-08-07T00:32:36.781Z,19.42
2018-08-07T00:33:45.393Z,19.47
2018-08-07T00:34:54.007Z,19.39
2018-08-07T00:36:02.620Z,19.35
2018-08-07T00:37:11.232Z,19.38
2018-08-07T00:38:19.847Z,19.32
2018-08-07T00:39:28.460Z,19.27
2018-08-07T00:40:37.079Z,19.37
2018-08-07T00:41:45.950Z,19.29
2018-08-07T00:42:54.824Z,19.22
2018-08-07T00:44:03.438Z,19.19
2018-08-07T00:45:12.051Z,19.2
2018-08-07T00:46:20.664Z,19.24
2018-08-07T00:47:29.278Z,19.22
2018-08-07T00:48:37.889Z,19.29
2018-08-07T00:49:46.502Z,19.16
2018-08-07T00:50:55.116Z,19.16
2018-08-07T00:52:03.729Z,19.15
2018-08-07T00:53:12.341Z,19.22
2018-08-07T00:54:21.213Z,19.19
2018-08-07T00:55:30.094Z,19.15
2018-08-07T00:56:38.707Z,19.15
2018-08-07T00:57:47.320Z,19.15
2018-08-07T00:58:55.927Z,19.15
2018-08-07T01:00:04.541Z,19.19
2018-08-07T01:01:13.427Z,19.2
2018-08-07T01:02:22.040Z,19.16
2018-08-07T01:03:30.658Z,19.01
2018-08-07T01:04:39.266Z,19.07
2018-08-07T01:05:47.882Z,19.08
2018-08-07T01:06:56.492Z,18.97
2018-08-07T01:08:05.112Z,18.98
2018-08-07T01:09:13.720Z,19
2018-08-07T01:10:22.336Z,19
2018-08-07T01:11:30.945Z,19.04
2018-08-07T01:12:39.564Z,19.05
2018-08-07T01:13:48.175Z,19.04
2018-08-07T01:14:56.788Z,19
2018-08-07T01:16:05.401Z,18.92
2018-08-07T01:17:14.021Z,18.92
2018-08-07T01:18:22.635Z,18.94
2018-08-07T01:19:31.245Z,18.98
2018-08-07T01:20:39.856Z,18.92
2018-08-07T01:21:48.468Z,18.88
2018-08-07T01:22:57.089Z,18.89
2018-08-07T01:24:05.700Z,18.86
2018-08-07T01:25:14.575Z,18.86
2018-08-07T01:26:23.182Z,18.86
2018-08-07T01:27:31.798Z,18.83
2018-08-07T01:28:40.408Z,18.82
2018-08-07T01:29:49.027Z,18.74
2018-08-07T01:30:57.892Z,18.78
2018-08-07T01:32:06.523Z,18.78
2018-08-07T01:33:15.145Z,18.78
2018-08-07T01:34:24.017Z,18.76
2018-08-07T01:35:32.624Z,18.76
2018-08-07T01:36:41.245Z,18.64
2018-08-07T01:37:49.857Z,18.66
2018-08-07T01:38:58.747Z,18.68
2018-08-07T01:40:07.362Z,18.68
2018-08-07T01:41:16.232Z,18.63
2018-08-07T01:42:24.849Z,18.58
2018-08-07T01:43:33.458Z,18.58
2018-08-07T01:44:42.077Z,18.58
2018-08-07T01:45:50.685Z,18.55
2018-08-07T01:46:59.297Z,18.52
2018-08-07T01:48:07.907Z,18.57
2018-08-07T01:49:16.789Z,18.53
2018-08-07T01:50:25.395Z,18.57
2018-08-07T01:51:34.017Z,18.55
2018-08-07T01:52:42.632Z,18.41
2018-08-07T01:53:51.513Z,18.46
2018-08-07T01:55:00.128Z,18.43
2018-08-07T01:56:08.739Z,18.42
2018-08-07T01:57:17.356Z,18.39
2018-08-07T01:58:25.969Z,18.33
2018-08-07T01:59:34.578Z,18.43
2018-08-07T02:00:43.192Z,18.41
2018-08-07T02:01:51.804Z,18.33
2018-08-07T02:03:00.418Z,18.39
2018-08-07T02:04:09.033Z,18.39
2018-08-07T02:05:17.646Z,18.31
2018-08-07T02:06:26.264Z,18.34
2018-08-07T02:07:34.874Z,18.36
2018-08-07T02:08:43.744Z,18.41
2018-08-07T02:09:52.354Z,18.28
2018-08-07T02:11:01.229Z,18.3
2018-08-07T02:12:09.842Z,18.26
2018-08-07T02:13:18.458Z,18.33
2018-08-07T02:14:27.067Z,18.3
2018-08-07T02:15:35.680Z,18.24
2018-08-07T02:16:44.296Z,18.21
2018-08-07T02:17:52.906Z,18.19
2018-08-07T02:19:01.776Z,18.13
2018-08-07T02:20:10.394Z,18.21
2018-08-07T02:21:19.005Z,18.13
2018-08-07T02:22:27.618Z,18.16
2018-08-07T02:23:36.229Z,18.13
2018-08-07T02:24:44.838Z,18.19
2018-08-07T02:25:53.451Z,18.24
2018-08-07T02:27:02.064Z,18.08
2018-08-07T02:28:10.680Z,18.06
2018-08-07T02:29:19.292Z,18.06
2018-08-07T02:30:28.162Z,18.11
2018-08-07T02:31:36.779Z,18.12
2018-08-07T02:32:45.918Z,18.08
2018-08-07T02:33:54.801Z,18.08
2018-08-07T02:35:03.413Z,17.94
2018-08-07T02:36:12.293Z,17.91
2018-08-07T02:37:21.182Z,17.98
2018-08-07T02:38:29.791Z,17.93
2018-08-07T02:39:38.402Z,18
2018-08-07T02:40:47.290Z,17.95
2018-08-07T02:41:55.910Z,18.06
2018-08-07T02:43:04.522Z,18.05
2018-08-07T02:44:13.652Z,17.98
2018-08-07T02:45:22.276Z,17.95
2018-08-07T02:46:31.148Z,18.05
2018-08-07T02:47:40.021Z,17.93
2018-08-07T02:48:48.637Z,17.97
2018-08-07T02:49:57.250Z,17.87
2018-08-07T02:51:05.864Z,17.9
2018-08-07T02:52:14.481Z,17.97
2018-08-07T02:53:23.100Z,17.95
2018-08-07T02:54:31.706Z,17.94
2018-08-07T02:55:40.329Z,17.86
2018-08-07T02:56:49.199Z,17.84
2018-08-07T02:57:58.077Z,17.78
2018-08-07T02:59:06.965Z,17.76
2018-08-07T03:00:16.107Z,17.79
2018-08-07T03:01:24.977Z,17.76
2018-08-07T03:02:33.595Z,17.72
2018-08-07T03:03:42.204Z,17.73
2018-08-07T03:04:51.085Z,17.72
2018-08-07T03:05:59.965Z,17.73
2018-08-07T03:07:08.584Z,17.73
2018-08-07T03:08:17.469Z,17.76
2018-08-07T03:09:26.080Z,17.66
2018-08-07T03:10:35.205Z,17.68
2018-08-07T03:11:43.828Z,17.69
2018-08-07T03:12:52.704Z,17.68
2018-08-07T03:14:01.319Z,17.69
2018-08-07T03:15:10.201Z,17.73
2018-08-07T03:16:19.598Z,17.59
2018-08-07T03:17:28.220Z,17.56
2018-08-07T03:18:36.835Z,17.6
2018-08-07T03:19:45.459Z,17.63
2018-08-07T03:20:54.071Z,17.53
2018-08-07T03:22:02.687Z,17.63
2018-08-07T03:23:11.303Z,17.59
2018-08-07T03:24:19.927Z,17.56
2018-08-07T03:25:28.532Z,17.54
2018-08-07T03:26:37.150Z,17.5
2018-08-07T03:27:45.771Z,17.52
2018-08-07T03:28:54.641Z,17.52
2018-08-07T03:30:03.261Z,17.52
2018-08-07T03:31:11.863Z,17.52
2018-08-07T03:32:20.476Z,17.47
2018-08-07T03:33:29.088Z,17.53
2018-08-07T03:34:37.704Z,17.49
2018-08-07T03:35:46.311Z,17.5
2018-08-07T03:36:54.929Z,17.47
2018-08-07T03:38:03.537Z,17.46
2018-08-07T03:39:12.153Z,17.39
2018-08-07T03:40:21.030Z,17.54
2018-08-07T03:41:29.642Z,17.56
2018-08-07T03:42:38.253Z,17.46
2018-08-07T03:43:46.873Z,17.53
2018-08-07T03:44:55.481Z,17.42
2018-08-07T03:46:04.348Z,17.54
2018-08-07T03:47:13.221Z,17.46
2018-08-07T03:48:21.835Z,17.52
2018-08-07T03:49:30.448Z,17.44
2018-08-07T03:50:39.060Z,17.5
2018-08-07T03:51:47.702Z,17.53
2018-08-07T03:52:56.297Z,17.42
2018-08-07T03:54:04.899Z,17.54
2018-08-07T03:55:13.514Z,17.53
2018-08-07T03:56:22.121Z,17.52
2018-08-07T03:57:30.737Z,17.49
2018-08-07T03:58:39.351Z,17.53
2018-08-07T03:59:47.971Z,17.5
2018-08-07T04:00:56.844Z,17.53
2018-08-07T04:02:05.723Z,17.47
2018-08-07T04:03:14.335Z,17.42
2018-08-07T04:04:22.944Z,17.56
2018-08-07T04:05:31.552Z,17.49
2018-08-07T04:06:40.165Z,17.54
2018-08-07T04:07:49.050Z,17.44
2018-08-07T04:08:57.662Z,17.47
2018-08-07T04:10:06.277Z,17.5
2018-08-07T04:11:14.886Z,17.39
2018-08-07T04:12:23.506Z,17.39
2018-08-07T04:13:32.113Z,17.41
2018-08-07T04:14:40.723Z,17.39
2018-08-07T04:15:49.332Z,17.35
2018-08-07T04:16:57.952Z,17.31
2018-08-07T04:18:06.567Z,17.35
2018-08-07T04:19:15.180Z,17.35
2018-08-07T04:20:23.790Z,17.3
2018-08-07T04:21:32.401Z,17.27
2018-08-07T04:22:41.015Z,17.27
2018-08-07T04:23:49.630Z,17.28
2018-08-07T04:24:58.239Z,17.3
2018-08-07T04:26:06.884Z,17.3
2018-08-07T04:27:15.466Z,17.34
2018-08-07T04:28:24.332Z,17.32
2018-08-07T04:29:32.949Z,17.3
2018-08-07T04:30:41.815Z,17.3
2018-08-07T04:31:50.430Z,17.28
2018-08-07T04:32:59.036Z,17.3
2018-08-07T04:34:07.657Z,17.35
2018-08-07T04:35:16.265Z,17.35
2018-08-07T04:36:24.879Z,17.39
2018-08-07T04:37:33.489Z,17.41
2018-08-07T04:38:42.106Z,17.35
2018-08-07T04:39:50.716Z,17.35
2018-08-07T04:40:59.325Z,17.42
2018-08-07T04:42:08.198Z,17.38
2018-08-07T04:43:16.805Z,17.34
2018-08-07T04:44:25.423Z,17.28
2018-08-07T04:45:34.032Z,17.28
2018-08-07T04:46:42.648Z,17.37
2018-08-07T04:47:51.253Z,17.24
2018-08-07T04:49:00.132Z,17.3
2018-08-07T04:50:08.746Z,17.31
2018-08-07T04:51:17.623Z,17.39
2018-08-07T04:52:26.233Z,17.38
2018-08-07T04:53:35.123Z,17.35
2018-08-07T04:54:43.733Z,17.57
2018-08-07T04:55:52.350Z,17.47
2018-08-07T04:57:00.959Z,17.5
2018-08-07T04:58:09.952Z,17.53
2018-08-07T04:59:18.524Z,17.54
2018-08-07T05:00:27.137Z,17.68
2018-08-07T05:01:35.750Z,17.63
2018-08-07T05:02:44.394Z,17.59
2018-08-07T05:03:53.235Z,17.68
2018-08-07T05:05:01.851Z,17.65
2018-08-07T05:06:10.465Z,17.69
2018-08-07T05:07:19.336Z,17.68
2018-08-07T05:08:27.946Z,17.68
2018-08-07T05:09:36.559Z,17.72
2018-08-07T05:10:45.214Z,17.65
2018-08-07T05:11:53.795Z,17.73
2018-08-07T05:13:02.410Z,17.73
2018-08-07T05:14:11.306Z,17.72
2018-08-07T05:15:19.914Z,17.72
2018-08-07T05:16:28.528Z,17.78
2018-08-07T05:17:37.143Z,17.82
2018-08-07T05:18:45.757Z,17.76
2018-08-07T05:19:54.367Z,17.9
2018-08-07T05:21:02.990Z,17.97
2018-08-07T05:22:12.124Z,17.95
2018-08-07T05:23:20.734Z,18.05
2018-08-07T05:24:29.347Z,18.12
2018-08-07T05:25:37.965Z,18.11
2018-08-07T05:26:46.834Z,18.13
2018-08-07T05:27:55.444Z,18.31
2018-08-07T05:29:04.054Z,18.23
2018-08-07T05:30:12.666Z,18.39
2018-08-07T05:31:21.279Z,18.42
2018-08-07T05:32:29.886Z,18.48
2018-08-07T05:33:38.499Z,18.55
2018-08-07T05:34:47.375Z,18.57
2018-08-07T05:35:56.012Z,18.51
2018-08-07T05:37:04.600Z,18.53
2018-08-07T05:38:13.214Z,18.57
2018-08-07T05:39:21.826Z,18.71
2018-08-07T05:40:30.462Z,18.67
2018-08-07T05:41:39.051Z,18.68
2018-08-07T05:42:48.013Z,18.81
2018-08-07T05:43:56.949Z,18.85
2018-08-07T05:45:05.563Z,18.97
2018-08-07T05:46:14.436Z,18.89
2018-08-07T05:47:23.055Z,19.04
2018-08-07T05:48:31.669Z,19.07
2018-08-07T05:49:40.278Z,19.05
2018-08-07T05:50:49.234Z,19.12
2018-08-07T05:51:57.506Z,19.15
2018-08-07T05:53:06.379Z,19.12
2018-08-07T05:54:14.997Z,19.12
2018-08-07T05:55:23.870Z,19.26
2018-08-07T05:56:32.856Z,19.24
2018-08-07T05:57:42.380Z,19.32
2018-08-07T05:58:51.332Z,19.42
2018-08-07T05:59:59.931Z,19.41
2018-08-07T06:01:08.807Z,19.35
2018-08-07T06:02:17.427Z,19.48
2018-08-07T06:03:26.301Z,19.6
2018-08-07T06:04:34.921Z,19.66
2018-08-07T06:05:43.535Z,19.75
2018-08-07T06:06:52.147Z,19.72
2018-08-07T06:08:00.765Z,19.82
2018-08-07T06:09:09.379Z,19.97
2018-08-07T06:10:17.993Z,19.93
2018-08-07T06:11:26.605Z,20.1
2018-08-07T06:12:35.218Z,20.02
2018-08-07T06:13:44.096Z,20.08
2018-08-07T06:14:52.712Z,20.15
2018-08-07T06:16:01.324Z,20.1
2018-08-07T06:17:09.947Z,20.15
2018-08-07T06:18:18.563Z,20.17
2018-08-07T06:19:27.179Z,20.18
2018-08-07T06:20:35.791Z,20.24
2018-08-07T06:21:44.403Z,20.36
2018-08-07T06:22:53.541Z,20.34
2018-08-07T06:24:02.418Z,20.4
2018-08-07T06:25:11.559Z,20.56
2018-08-07T06:26:20.437Z,20.64
2018-08-07T06:27:29.048Z,20.6
2018-08-07T06:28:38.340Z,20.68
2018-08-07T06:29:47.227Z,20.83
2018-08-07T06:30:55.843Z,20.8
2018-08-07T06:32:04.459Z,20.88
2018-08-07T06:33:13.334Z,20.93
2018-08-07T06:34:21.950Z,20.98
2018-08-07T06:35:30.825Z,21.05
2018-08-07T06:36:39.433Z,21.2
2018-08-07T06:37:48.115Z,21.15
2018-08-07T06:38:56.664Z,21.25
2018-08-07T06:40:05.284Z,21.37
2018-08-07T06:41:13.895Z,21.38
2018-08-07T06:42:22.508Z,21.38
2018-08-07T06:43:31.382Z,21.45
2018-08-07T06:44:39.997Z,21.38
2018-08-07T06:45:48.615Z,21.54
2018-08-07T06:46:57.483Z,21.65
2018-08-07T06:48:06.529Z,21.62
2018-08-07T06:49:15.419Z,21.78
2018-08-07T06:50:24.035Z,21.83
2018-08-07T06:51:32.652Z,21.85
2018-08-07T06:52:41.518Z,21.97
2018-08-07T06:53:50.135Z,22.04
2018-08-07T06:54:58.744Z,22.08
2018-08-07T06:56:07.625Z,22.19
2018-08-07T06:57:16.236Z,22.26
2018-08-07T06:58:25.115Z,22.37
2018-08-07T06:59:33.725Z,22.41
2018-08-07T07:00:42.347Z,22.52
2018-08-07T07:01:50.963Z,22.52
2018-08-07T07:02:59.849Z,22.55
2018-08-07T07:04:08.460Z,22.62
2018-08-07T07:05:17.083Z,22.65
2018-08-07T07:06:25.702Z,22.7
2018-08-07T07:07:34.313Z,22.86
2018-08-07T07:08:42.930Z,22.89
2018-08-07T07:09:51.613Z,23.02
2018-08-07T07:11:00.165Z,23.1
2018-08-07T07:12:08.787Z,23.14
2018-08-07T07:13:17.407Z,23.23
2018-08-07T07:14:26.017Z,23.28
2018-08-07T07:15:34.638Z,23.33
2018-08-07T07:16:43.254Z,23.37
2018-08-07T07:17:51.875Z,23.42
2018-08-07T07:19:00.484Z,23.4
2018-08-07T07:20:09.108Z,23.54
2018-08-07T07:21:17.722Z,23.56
2018-08-07T07:22:26.344Z,23.66
2018-08-07T07:23:34.956Z,23.7
2018-08-07T07:24:43.570Z,23.69
2018-08-07T07:25:52.453Z,23.73
2018-08-07T07:27:01.068Z,23.88
2018-08-07T07:28:09.683Z,23.88
2018-08-07T07:29:18.295Z,24.07
2018-08-07T07:30:26.915Z,24.18
2018-08-07T07:31:35.528Z,24.22
2018-08-07T07:32:44.414Z,24.37
2018-08-07T07:33:53.282Z,24.46
2018-08-07T07:35:01.901Z,24.51
2018-08-07T07:36:10.516Z,24.66
2018-08-07T07:37:19.135Z,24.65
2018-08-07T07:38:27.773Z,24.77
2018-08-07T07:39:36.420Z,24.81
2018-08-07T07:40:45.143Z,24.93
2018-08-07T07:41:53.726Z,24.99
2018-08-07T07:43:02.642Z,25.03
2018-08-07T07:44:11.292Z,25.14
2018-08-07T07:45:19.943Z,25.11
2018-08-07T07:46:28.593Z,25.18
2018-08-07T07:47:37.250Z,25.16
2018-08-07T07:48:45.901Z,25.31
2018-08-07T07:49:54.553Z,25.3
2018-08-07T07:51:03.200Z,25.33
2018-08-07T07:52:11.856Z,25.46
2018-08-07T07:53:20.768Z,25.49
2018-08-07T07:54:29.420Z,25.49
2018-08-07T07:55:38.605Z,25.48
2018-08-07T07:56:47.260Z,25.66
2018-08-07T07:57:55.916Z,25.67
2018-08-07T07:59:04.564Z,25.67
2018-08-07T08:00:13.215Z,25.78
2018-08-07T08:01:21.868Z,25.81
2018-08-07T08:02:30.521Z,25.98
2018-08-07T08:03:39.175Z,25.99
2018-08-07T08:04:47.832Z,26.07
2018-08-07T08:05:56.529Z,26.24
2018-08-07T08:07:05.401Z,26.3
2018-08-07T08:08:14.057Z,26.26
2018-08-07T08:09:22.714Z,26.39
2018-08-07T08:10:31.361Z,26.44
2018-08-07T08:11:40.274Z,26.44
2018-08-07T08:12:48.933Z,26.56
2018-08-07T08:13:57.586Z,26.52
2018-08-07T08:15:06.234Z,26.56
2018-08-07T08:16:14.887Z,26.63
2018-08-07T08:17:23.535Z,26.66
2018-08-07T08:18:32.190Z,26.71
2018-08-07T08:19:40.843Z,26.67
2018-08-07T08:20:49.760Z,26.68
2018-08-07T08:21:58.410Z,26.78
2018-08-07T08:23:07.062Z,26.83
2018-08-07T08:24:15.720Z,27.01
2018-08-07T08:25:24.378Z,27.04
2018-08-07T08:26:33.033Z,27.13
2018-08-07T08:27:41.954Z,27.16
2018-08-07T08:28:51.104Z,27.23
2018-08-07T08:29:59.676Z,27.37
2018-08-07T08:31:08.199Z,27.38
2018-08-07T08:32:16.848Z,27.47
2018-08-07T08:33:25.505Z,27.61
2018-08-07T08:34:34.158Z,27.63
2018-08-07T08:35:43.153Z,27.67
2018-08-07T08:36:52.097Z,27.64
2018-08-07T08:38:01.015Z,27.73
2018-08-07T08:39:09.667Z,27.64
2018-08-07T08:40:18.325Z,27.78
2018-08-07T08:41:27.244Z,27.82
2018-08-07T08:42:35.889Z,28.06
2018-08-07T08:43:44.549Z,28.09
2018-08-07T08:44:53.194Z,28.15
2018-08-07T08:46:01.856Z,28.3
2018-08-07T08:47:10.764Z,28.4
2018-08-07T08:48:19.579Z,28.43
2018-08-07T08:49:28.070Z,28.5
2018-08-07T08:50:36.732Z,28.49
2018-08-07T08:51:45.641Z,28.68
2018-08-07T08:52:54.299Z,28.71
2018-08-07T08:54:02.985Z,28.82
2018-08-07T08:55:11.610Z,28.83
2018-08-07T08:56:20.262Z,28.89
2018-08-07T08:57:28.910Z,28.78
2018-08-07T08:58:37.559Z,28.97
2018-08-07T08:59:46.210Z,28.94
2018-08-07T09:00:54.874Z,29.13
2018-08-07T09:02:03.524Z,29.09
2018-08-07T09:03:12.180Z,29.16
2018-08-07T09:04:20.826Z,29.27
2018-08-07T09:05:29.502Z,29.22
2018-08-07T09:06:38.415Z,29.32
2018-08-07T09:07:47.075Z,29.35
2018-08-07T09:08:55.720Z,29.34
2018-08-07T09:10:04.648Z,29.43
2018-08-07T09:11:13.301Z,29.53
2018-08-07T09:12:21.956Z,29.64
2018-08-07T09:13:30.603Z,29.74
2018-08-07T09:14:39.256Z,29.61
2018-08-07T09:15:47.928Z,29.71
2018-08-07T09:16:57.092Z,29.74
2018-08-07T09:18:05.749Z,29.79
2018-08-07T09:19:14.395Z,29.8
2018-08-07T09:20:23.321Z,29.8
2018-08-07T09:21:31.972Z,29.87
2018-08-07T09:22:40.637Z,29.86
2018-08-07T09:23:49.286Z,29.87
2018-08-07T09:24:57.954Z,30.03
2018-08-07T09:26:06.655Z,30.03
2018-08-07T09:27:15.268Z,30.2
2018-08-07T09:28:24.206Z,30.29
2018-08-07T09:29:34.156Z,30.27
2018-08-07T09:30:42.808Z,30.31
2018-08-07T09:31:51.517Z,30.38
2018-08-07T09:33:00.548Z,30.4
2018-08-07T09:34:09.127Z,30.43
2018-08-07T09:35:17.780Z,30.49
2018-08-07T09:36:26.436Z,30.46
2018-08-07T09:37:35.098Z,30.58
2018-08-07T09:38:44.005Z,30.56
2018-08-07T09:39:52.667Z,30.54
2018-08-07T09:41:01.314Z,30.63
2018-08-07T09:42:09.976Z,30.74
2018-08-07T09:43:18.897Z,30.89
2018-08-07T09:44:27.815Z,30.78
2018-08-07T09:45:36.463Z,30.88
2018-08-07T09:46:45.128Z,30.83
2018-08-07T09:47:53.779Z,30.92
2018-08-07T09:49:02.437Z,30.99
2018-08-07T09:50:11.088Z,30.99
2018-08-07T09:51:20.015Z,31.07
2018-08-07T09:52:28.794Z,31.04
2018-08-07T09:53:37.590Z,31.15
2018-08-07T09:54:46.252Z,31.18
2018-08-07T09:55:54.900Z,31.22
2018-08-07T09:57:03.552Z,31.29
2018-08-07T09:58:12.218Z,31.33
2018-08-07T09:59:20.869Z,31.26
2018-08-07T10:00:29.517Z,31.37
2018-08-07T10:01:38.170Z,31.36
2018-08-07T10:02:46.864Z,31.41
2018-08-07T10:03:55.541Z,31.48
2018-08-07T10:05:04.623Z,31.57
2018-08-07T10:06:13.249Z,31.63
2018-08-07T10:07:22.093Z,31.64
2018-08-07T10:08:30.956Z,31.67
2018-08-07T10:09:40.126Z,31.62
2018-08-07T10:10:49.028Z,31.62
2018-08-07T10:11:57.681Z,31.7
2018-08-07T10:13:06.349Z,31.78
2018-08-07T10:14:15.269Z,31.72
2018-08-07T10:15:24.206Z,31.7
2018-08-07T10:16:32.847Z,31.73
2018-08-07T10:17:41.567Z,31.73
2018-08-07T10:18:50.497Z,31.77
2018-08-07T10:19:59.152Z,31.81
2018-08-07T10:21:08.081Z,31.9
2018-08-07T10:22:16.814Z,31.9
2018-08-07T10:23:25.620Z,31.89
2018-08-07T10:24:34.130Z,31.92
2018-08-07T10:25:42.793Z,31.95
2018-08-07T10:26:51.446Z,31.98
2018-08-07T10:28:00.627Z,32.19
2018-08-07T10:29:09.283Z,32.27
2018-08-07T10:30:17.941Z,32.34
2018-08-07T10:31:26.955Z,32.37
2018-08-07T10:32:35.541Z,32.44
2018-08-07T10:33:44.198Z,32.49
2018-08-07T10:34:52.862Z,32.44
2018-08-07T10:36:01.514Z,32.46
2018-08-07T10:37:10.167Z,32.59
2018-08-07T10:38:18.830Z,32.64
2018-08-07T10:39:27.486Z,32.76
2018-08-07T10:40:36.192Z,32.73
2018-08-07T10:41:44.797Z,32.73
2018-08-07T10:42:53.458Z,32.83
2018-08-07T10:44:02.147Z,32.9
2018-08-07T10:45:10.793Z,32.86
2018-08-07T10:46:19.719Z,33.04
2018-08-07T10:47:28.370Z,33.05
2018-08-07T10:48:37.021Z,33.12
2018-08-07T10:49:45.680Z,33.03
2018-08-07T10:50:54.456Z,33.15
2018-08-07T10:52:03.411Z,33.08
2018-08-07T10:53:12.336Z,33.09
2018-08-07T10:54:20.983Z,33.29
2018-08-07T10:55:29.653Z,33.23
2018-08-07T10:56:38.321Z,33.29
2018-08-07T10:57:46.987Z,33.31
2018-08-07T10:58:55.637Z,33.38
2018-08-07T11:00:04.574Z,33.47
2018-08-07T11:01:13.233Z,33.5
2018-08-07T11:02:22.153Z,33.61
2018-08-07T11:03:30.800Z,33.69
2018-08-07T11:04:39.460Z,33.72
2018-08-07T11:05:48.159Z,33.7
2018-08-07T11:06:56.780Z,33.75
2018-08-07T11:08:05.439Z,33.77
2018-08-07T11:09:14.087Z,33.66
2018-08-07T11:10:22.755Z,33.6
2018-08-07T11:11:31.402Z,33.63
2018-08-07T11:12:40.069Z,33.53
2018-08-07T11:13:48.722Z,33.51
2018-08-07T11:14:57.380Z,33.51
2018-08-07T11:16:06.038Z,33.47
2018-08-07T11:17:14.703Z,33.47
2018-08-07T11:18:23.614Z,33.45
2018-08-07T11:19:32.273Z,33.53
2018-08-07T11:20:40.928Z,33.51
2018-08-07T11:21:49.597Z,33.61
2018-08-07T11:22:58.514Z,33.69
2018-08-07T11:24:07.178Z,33.65
2018-08-07T11:25:16.099Z,33.75
2018-08-07T11:26:24.756Z,33.84
2018-08-07T11:27:33.423Z,33.88
2018-08-07T11:28:42.075Z,33.91
2018-08-07T11:29:51.092Z,33.95
2018-08-07T11:30:59.694Z,34
2018-08-07T11:32:08.361Z,33.95
2018-08-07T11:33:17.018Z,33.94
2018-08-07T11:34:25.680Z,34
2018-08-07T11:35:34.328Z,33.95
2018-08-07T11:36:42.998Z,33.98
2018-08-07T11:37:51.652Z,34.02
2018-08-07T11:39:00.306Z,33.95
2018-08-07T11:40:09.005Z,34.06
2018-08-07T11:41:17.707Z,34.1
2018-08-07T11:42:26.374Z,34.21
2018-08-07T11:43:34.974Z,34.19
2018-08-07T11:44:43.890Z,34.33
2018-08-07T11:45:53.196Z,34.33
2018-08-07T11:47:01.853Z,34.22
2018-08-07T11:48:11.088Z,34.37
2018-08-07T11:49:19.723Z,34.38
2018-08-07T11:50:28.390Z,34.43
2018-08-07T11:51:37.045Z,34.5
2018-08-07T11:52:45.973Z,34.55
2018-08-07T11:53:54.626Z,34.62
2018-08-07T11:55:03.294Z,34.59
2018-08-07T11:56:11.996Z,34.69
2018-08-07T11:57:20.609Z,34.66
2018-08-07T11:58:29.256Z,34.73
2018-08-07T11:59:37.916Z,34.75
2018-08-07T12:00:46.580Z,34.63
2018-08-07T12:01:55.284Z,34.7
2018-08-07T12:03:04.180Z,34.71
2018-08-07T12:04:12.829Z,34.75
2018-08-07T12:05:21.491Z,34.82
2018-08-07T12:06:30.151Z,34.88
2018-08-07T12:07:38.817Z,34.85
2018-08-07T12:08:47.464Z,34.88
2018-08-07T12:09:56.126Z,34.83
2018-08-07T12:11:04.779Z,34.81
2018-08-07T12:12:13.451Z,34.89
2018-08-07T12:13:22.100Z,34.97
2018-08-07T12:14:31.025Z,35.01
2018-08-07T12:15:39.681Z,34.98
2018-08-07T12:16:48.347Z,35.03
2018-08-07T12:17:57.012Z,35.15
2018-08-07T12:19:05.661Z,35.01
2018-08-07T12:20:14.317Z,35.04
2018-08-07T12:21:23.238Z,34.98
2018-08-07T12:22:31.913Z,35.05
2018-08-07T12:23:40.562Z,35.01
2018-08-07T12:24:49.224Z,35.12
2018-08-07T12:25:57.874Z,35.18
2018-08-07T12:27:06.542Z,35.15
2018-08-07T12:28:15.198Z,35.15
2018-08-07T12:29:23.862Z,35.25
2018-08-07T12:30:32.513Z,35.26
2018-08-07T12:31:41.716Z,35.27
2018-08-07T12:32:50.371Z,35.42
2018-08-07T12:33:59.034Z,35.42
2018-08-07T12:35:07.772Z,35.38
2018-08-07T12:36:16.345Z,35.32
2018-08-07T12:37:25.008Z,35.39
2018-08-07T12:38:33.676Z,35.38
2018-08-07T12:39:42.326Z,35.19
2018-08-07T12:40:50.978Z,35.25
2018-08-07T12:41:59.635Z,35.38
2018-08-07T12:43:08.299Z,35.37
2018-08-07T12:44:17.230Z,35.5
2018-08-07T12:45:25.886Z,35.42
2018-08-07T12:46:34.578Z,35.45
2018-08-07T12:47:43.509Z,35.42
2018-08-07T12:48:52.437Z,35.41
2018-08-07T12:50:01.092Z,35.49
2018-08-07T12:51:09.754Z,35.45
2018-08-07T12:52:18.418Z,35.47
2018-08-07T12:53:27.371Z,35.53
2018-08-07T12:54:36.024Z,35.53
2018-08-07T12:55:44.678Z,35.61
2018-08-07T12:56:53.338Z,35.57
2018-08-07T12:58:02.262Z,35.74
2018-08-07T12:59:10.918Z,35.69
2018-08-07T13:00:19.584Z,35.72
2018-08-07T13:01:28.961Z,35.71
2018-08-07T13:02:37.613Z,35.72
2018-08-07T13:03:46.542Z,35.68
2018-08-07T13:04:55.201Z,35.72
2018-08-07T13:06:04.392Z,35.71
2018-08-07T13:07:13.317Z,35.69
2018-08-07T13:08:21.981Z,35.81
2018-08-07T13:09:30.638Z,35.78
2018-08-07T13:10:39.299Z,35.88
2018-08-07T13:11:47.955Z,35.87
2018-08-07T13:12:56.618Z,35.81
2018-08-07T13:14:05.276Z,35.82
2018-08-07T13:15:14.201Z,35.9
2018-08-07T13:16:23.122Z,35.87
2018-08-07T13:17:32.185Z,35.84
2018-08-07T13:18:40.813Z,35.91
2018-08-07T13:19:49.472Z,35.76
2018-08-07T13:20:58.135Z,35.88
2018-08-07T13:22:07.074Z,35.88
2018-08-07T13:23:15.728Z,35.96
2018-08-07T13:24:24.388Z,36.09
2018-08-07T13:25:33.070Z,36.13
2018-08-07T13:26:41.717Z,36.18
2018-08-07T13:27:50.635Z,36.25
2018-08-07T13:28:59.292Z,36.25
2018-08-07T13:30:07.956Z,36.28
2018-08-07T13:31:16.710Z,36.33
2018-08-07T13:32:25.276Z,36.26
2018-08-07T13:33:33.934Z,36.2
2018-08-07T13:34:42.591Z,36.17
2018-08-07T13:35:51.257Z,36.14
2018-08-07T13:36:59.922Z,36.09
2018-08-07T13:38:08.574Z,36.2
2018-08-07T13:39:17.241Z,36.09
2018-08-07T13:40:26.169Z,36.13
2018-08-07T13:41:35.100Z,36.03
2018-08-07T13:42:43.755Z,36.01
2018-08-07T13:43:52.422Z,35.93
2018-08-07T13:45:01.074Z,35.96
2018-08-07T13:46:09.734Z,35.88
2018-08-07T13:47:18.390Z,35.98
2018-08-07T13:48:27.058Z,35.98
2018-08-07T13:49:35.723Z,36.01
2018-08-07T13:50:44.375Z,36.05
2018-08-07T13:51:53.027Z,36.11
2018-08-07T13:53:01.685Z,36.11
2018-08-07T13:54:10.354Z,36.09
2018-08-07T13:55:19.007Z,36.17
2018-08-07T13:56:27.671Z,36.08
2018-08-07T13:57:36.323Z,36.16
2018-08-07T13:58:44.991Z,36.13
2018-08-07T13:59:53.646Z,36.11
2018-08-07T14:01:02.310Z,36.11
2018-08-07T14:02:10.957Z,36.01
2018-08-07T14:03:19.623Z,36.01
2018-08-07T14:04:28.284Z,36
2018-08-07T14:05:36.946Z,36.01
2018-08-07T14:06:45.865Z,36.14
2018-08-07T14:07:54.595Z,36
2018-08-07T14:09:03.482Z,35.96
2018-08-07T14:10:12.122Z,36
2018-08-07T14:11:20.783Z,36
2018-08-07T14:12:29.436Z,36.09
2018-08-07T14:13:38.362Z,36.03
2018-08-07T14:14:47.018Z,36.08
2018-08-07T14:15:55.953Z,36.01
2018-08-07T14:17:04.605Z,35.94
2018-08-07T14:18:13.273Z,35.9
2018-08-07T14:19:21.930Z,35.86
2018-08-07T14:20:30.599Z,35.9
2018-08-07T14:21:39.250Z,35.94
2018-08-07T14:22:48.177Z,35.88
2018-08-07T14:23:56.834Z,35.87
2018-08-07T14:25:05.502Z,35.94
2018-08-07T14:26:14.160Z,36.03
2018-08-07T14:27:22.814Z,35.96
2018-08-07T14:28:31.472Z,35.97
2018-08-07T14:29:40.129Z,36
2018-08-07T14:30:48.797Z,35.97
2018-08-07T14:31:57.450Z,35.9
2018-08-07T14:33:06.116Z,35.91
2018-08-07T14:34:14.765Z,35.84
2018-08-07T14:35:23.432Z,35.88
2018-08-07T14:36:32.224Z,35.87
2018-08-07T14:37:40.751Z,35.93
2018-08-07T14:38:49.405Z,35.97
2018-08-07T14:39:58.333Z,35.93
2018-08-07T14:41:06.987Z,35.94
2018-08-07T14:42:15.723Z,36
2018-08-07T14:43:24.318Z,35.98
2018-08-07T14:44:33.236Z,36.06
2018-08-07T14:45:42.156Z,36.08
2018-08-07T14:46:50.819Z,36.05
2018-08-07T14:47:59.486Z,36.09